createdAt,value
2022-10-12T00:00:37.189Z,7.57
2022-10-12T00:03:04.457Z,8.00
2022-10-12T00:05:31.566Z,8.80
2022-10-12T00:07:58.759Z,7.78
2022-10-12T00:10:25.990Z,8.57
2022-10-12T00:12:53.080Z,7.82
2022-10-12T00:15:20.216Z,8.30
2022-10-12T00:17:47.389Z,7.75
2022-10-12T00:20:14.496Z,7.30
2022-10-12T00:22:41.598Z,7.47
2022-10-12T00:25:09.063Z,7.60
2022-10-12T00:27:36.434Z,6.90
2022-10-12T00:30:04.349Z,7.18
2022-10-12T00:32:31.535Z,7.43
2022-10-12T00:34:58.705Z,7.68
2022-10-12T00:37:25.801Z,6.68
2022-10-12T00:39:53.097Z,7.47
2022-10-12T00:42:21.163Z,6.80
2022-10-12T00:44:49.284Z,6.90
2022-10-12T00:47:16.426Z,7.70
2022-10-12T00:49:44.173Z,7.40
2022-10-12T00:52:12.324Z,6.32
2022-10-12T00:54:43.665Z,7.53
2022-10-12T00:57:11.946Z,7.30
2022-10-12T00:59:45.834Z,6.78
2022-10-12T01:02:13.716Z,7.38
2022-10-12T01:04:41.101Z,7.75
2022-10-12T01:07:08.470Z,7.47
2022-10-12T01:09:35.584Z,7.32
2022-10-12T01:12:04.440Z,8.23
2022-10-12T01:14:31.798Z,7.60
2022-10-12T01:17:22.510Z,7.50
2022-10-12T01:20:02.103Z,8.05
2022-10-12T01:22:33.141Z,7.43
2022-10-12T01:25:12.731Z,8.10
2022-10-12T01:27:41.380Z,8.05
2022-10-12T01:30:09.957Z,8.43
2022-10-12T01:32:37.233Z,8.40
2022-10-12T01:35:04.325Z,8.18
2022-10-12T01:37:36.127Z,7.88
2022-10-12T01:40:06.460Z,8.40
2022-10-12T01:42:35.092Z,9.10
2022-10-12T01:45:03.355Z,8.30
2022-10-12T01:47:30.667Z,8.50
2022-10-12T01:49:58.100Z,8.38
2022-10-12T01:52:32.996Z,9.00
2022-10-12T01:55:07.278Z,9.25
2022-10-12T01:57:43.668Z,9.05
2022-10-12T02:00:11.956Z,9.10
2022-10-12T02:02:48.118Z,8.70
2022-10-12T02:05:25.593Z,8.38
2022-10-12T02:07:55.046Z,9.15
2022-10-12T02:10:25.043Z,8.73
2022-10-12T02:12:53.411Z,9.55
2022-10-12T02:15:22.317Z,9.35
2022-10-12T02:17:50.246Z,8.93
2022-10-12T02:20:19.092Z,9.68
2022-10-12T02:22:48.873Z,9.10
2022-10-12T02:25:17.629Z,8.38
2022-10-12T02:27:46.884Z,8.50
2022-10-12T02:30:14.196Z,9.43
2022-10-12T02:32:49.238Z,9.20
2022-10-12T02:35:21.727Z,10.25
2022-10-12T02:37:51.620Z,8.82
2022-10-12T02:40:18.777Z,9.18
2022-10-12T02:43:09.250Z,9.45
2022-10-12T02:45:37.109Z,9.97
2022-10-12T02:48:05.968Z,9.48
2022-10-12T02:50:33.679Z,9.55
2022-10-12T02:53:01.058Z,9.57
2022-10-12T02:55:30.290Z,10.05
2022-10-12T02:57:57.428Z,10.13
2022-10-12T03:00:24.569Z,10.02
2022-10-12T03:02:51.753Z,8.93
2022-10-12T03:05:18.868Z,9.52
2022-10-12T03:07:45.989Z,10.35
2022-10-12T03:10:13.366Z,10.50
2022-10-12T03:12:40.473Z,10.38
2022-10-12T03:15:07.681Z,9.98
2022-10-12T03:17:35.144Z,10.52
2022-10-12T03:20:02.418Z,10.20
2022-10-12T03:22:29.532Z,10.50
2022-10-12T03:24:57.038Z,10.88
2022-10-12T03:27:24.957Z,9.90
2022-10-12T03:29:52.089Z,10.07
2022-10-12T03:32:19.565Z,10.48
2022-10-12T03:34:46.724Z,10.77
2022-10-12T03:37:13.849Z,10.68
2022-10-12T03:39:41.184Z,10.50
2022-10-12T03:42:08.340Z,11.32
2022-10-12T03:44:35.488Z,11.07
2022-10-12T03:47:02.661Z,10.30
2022-10-12T03:49:29.774Z,10.25
2022-10-12T03:51:56.881Z,10.30
2022-10-12T03:54:24.045Z,10.63
2022-10-12T03:56:51.192Z,11.10
2022-10-12T03:59:18.312Z,10.25
2022-10-12T04:01:45.608Z,10.63
2022-10-12T04:04:12.954Z,10.43
2022-10-12T04:06:40.054Z,10.77
2022-10-12T04:09:07.316Z,10.85
2022-10-12T04:11:34.429Z,10.30
2022-10-12T04:14:01.553Z,11.68
2022-10-12T04:16:31.072Z,11.60
2022-10-12T04:18:58.477Z,11.95
2022-10-12T04:21:25.796Z,11.05
2022-10-12T04:23:53.037Z,11.68
2022-10-12T04:26:20.145Z,11.23
2022-10-12T04:28:47.300Z,11.52
2022-10-12T04:31:14.493Z,12.20
2022-10-12T04:33:41.594Z,11.18
2022-10-12T04:36:08.994Z,12.25
2022-10-12T04:38:36.248Z,13.18
2022-10-12T04:41:03.384Z,11.98
2022-10-12T04:43:30.506Z,12.57
2022-10-12T04:45:58.854Z,12.15
2022-10-12T04:48:26.430Z,12.68
2022-10-12T04:50:53.609Z,12.40
2022-10-12T04:53:20.807Z,11.80
2022-10-12T04:55:47.977Z,12.30
2022-10-12T04:58:15.125Z,12.95
2022-10-12T05:00:42.423Z,12.30
2022-10-12T05:03:09.537Z,12.25
2022-10-12T05:05:36.757Z,12.85
2022-10-12T05:08:04.462Z,12.63
2022-10-12T05:10:31.829Z,12.77
2022-10-12T05:12:59.022Z,12.88
2022-10-12T05:15:26.438Z,13.25
2022-10-12T05:17:53.570Z,13.32
2022-10-12T05:20:20.703Z,13.27
2022-10-12T05:22:47.889Z,13.00
2022-10-12T05:25:15.042Z,13.32
2022-10-12T05:27:42.157Z,13.57
2022-10-12T05:30:09.831Z,13.68
2022-10-12T05:32:37.305Z,13.77
2022-10-12T05:35:04.911Z,12.65
2022-10-12T05:37:33.727Z,12.95
2022-10-12T05:40:00.859Z,12.88
2022-10-12T05:42:28.153Z,12.50
2022-10-12T05:44:55.490Z,14.15
2022-10-12T05:47:22.625Z,14.00
2022-10-12T05:49:49.733Z,13.73
2022-10-12T05:52:17.081Z,14.02
2022-10-12T05:54:44.217Z,12.63
2022-10-12T05:57:11.460Z,14.63
2022-10-12T05:59:38.633Z,13.50
2022-10-12T06:02:05.779Z,13.10
2022-10-12T06:04:32.957Z,13.07
2022-10-12T06:07:00.157Z,13.48
2022-10-12T06:09:27.290Z,12.70
2022-10-12T06:11:54.498Z,13.70
2022-10-12T06:14:21.753Z,13.13
2022-10-12T06:16:53.758Z,13.05
2022-10-12T06:19:21.849Z,13.20
2022-10-12T06:21:50.000Z,13.10
2022-10-12T06:24:17.109Z,13.40
2022-10-12T06:26:45.031Z,13.23
2022-10-12T06:29:12.141Z,13.10
2022-10-12T06:31:39.990Z,13.07
2022-10-12T06:34:07.475Z,12.50
2022-10-12T06:36:34.600Z,12.60
2022-10-12T06:39:01.741Z,13.05
2022-10-12T06:41:28.984Z,12.65
2022-10-12T06:43:56.171Z,12.48
2022-10-12T06:46:23.290Z,12.75
2022-10-12T06:48:50.537Z,12.93
2022-10-12T06:51:17.691Z,13.02
2022-10-12T06:53:44.824Z,12.85
2022-10-12T06:56:12.353Z,11.73
2022-10-12T06:58:39.660Z,12.93
2022-10-12T07:01:07.411Z,12.88
2022-10-12T07:03:34.816Z,12.50
2022-10-12T07:06:10.281Z,11.88
2022-10-12T07:08:37.856Z,11.60
2022-10-12T07:11:05.776Z,11.57
2022-10-12T07:13:33.665Z,11.32
2022-10-12T07:16:01.209Z,12.20
2022-10-12T07:18:28.513Z,11.35
2022-10-12T07:20:59.843Z,11.70
2022-10-12T07:23:27.697Z,11.75
2022-10-12T07:25:55.345Z,12.07
2022-10-12T07:28:22.827Z,12.25
2022-10-12T07:30:50.113Z,13.32
2022-10-12T07:33:17.230Z,13.80
2022-10-12T07:36:10.531Z,12.98
2022-10-12T07:38:31.757Z,12.93
2022-10-12T07:40:59.688Z,12.25
2022-10-12T07:43:27.070Z,12.07
2022-10-12T07:45:54.296Z,12.40
2022-10-12T07:48:21.833Z,11.27
2022-10-12T07:50:49.107Z,12.65
2022-10-12T07:53:16.751Z,10.65
2022-10-12T07:55:43.891Z,11.90
2022-10-12T07:58:12.003Z,11.45
2022-10-12T08:00:39.635Z,11.90
2022-10-12T08:03:06.745Z,11.32
2022-10-12T08:05:33.952Z,11.13
2022-10-12T08:08:01.134Z,11.15
2022-10-12T08:10:28.407Z,10.27
2022-10-12T08:12:55.524Z,10.73
2022-10-12T08:15:22.792Z,11.60
2022-10-12T08:17:50.659Z,10.30
2022-10-12T08:20:17.871Z,9.32
2022-10-12T08:22:45.169Z,9.75
2022-10-12T08:25:12.314Z,9.40
2022-10-12T08:27:39.962Z,9.80
2022-10-12T08:30:07.685Z,10.30
2022-10-12T08:32:34.854Z,9.50
2022-10-12T08:35:02.233Z,8.90
2022-10-12T08:37:30.498Z,8.80
2022-10-12T08:40:02.211Z,9.40
2022-10-12T08:42:43.273Z,8.30
2022-10-12T08:45:19.643Z,7.68
2022-10-12T08:47:51.599Z,8.77
2022-10-12T08:50:33.365Z,8.88
2022-10-12T08:53:20.920Z,8.63
2022-10-12T08:55:48.091Z,7.65
2022-10-12T08:58:26.044Z,7.57
2022-10-12T09:00:55.989Z,6.90
2022-10-12T09:03:27.078Z,5.45
2022-10-12T09:05:57.325Z,5.97
2022-10-12T09:08:43.286Z,5.97
2022-10-12T09:11:13.470Z,4.65
2022-10-12T09:13:48.032Z,3.50
2022-10-12T09:16:21.912Z,3.70
2022-10-12T09:18:52.054Z,3.92
2022-10-12T09:21:20.688Z,4.55
2022-10-12T09:23:48.497Z,4.38
2022-10-12T09:26:18.553Z,4.13
2022-10-12T09:28:45.761Z,4.03
2022-10-12T09:31:18.997Z,4.20
2022-10-12T09:33:52.015Z,3.97
2022-10-12T09:36:23.255Z,4.57
2022-10-12T09:41:21.637Z,3.65
2022-10-12T09:43:53.061Z,3.80
2022-10-12T09:46:23.848Z,3.40
2022-10-12T09:48:57.271Z,3.38
2022-10-12T09:51:24.382Z,4.60
2022-10-12T09:53:56.715Z,4.35
2022-10-12T09:56:29.775Z,3.33
2022-10-12T09:58:59.460Z,3.53
2022-10-12T10:01:27.946Z,3.03
2022-10-12T10:04:08.794Z,3.15
2022-10-12T10:06:37.490Z,3.63
2022-10-12T10:09:04.828Z,2.88
2022-10-12T10:11:32.364Z,2.85
2022-10-12T10:14:00.852Z,2.70
2022-10-12T10:16:29.806Z,2.50
2022-10-12T10:18:58.249Z,2.88
2022-10-12T10:21:30.255Z,2.67
2022-10-12T10:24:04.467Z,2.80
2022-10-12T10:26:51.175Z,2.70
2022-10-12T10:29:31.582Z,2.53
2022-10-12T10:32:24.053Z,2.73
2022-10-12T10:35:18.267Z,2.63
2022-10-12T10:37:47.669Z,2.42
2022-10-12T10:40:18.105Z,2.88
2022-10-12T10:42:49.940Z,2.83
2022-10-12T10:45:25.079Z,2.65
2022-10-12T10:47:56.528Z,3.20
2022-10-12T10:50:26.875Z,2.47
2022-10-12T10:52:56.888Z,2.90
2022-10-12T10:55:53.624Z,3.20
2022-10-12T10:58:26.203Z,2.75
2022-10-12T11:00:55.705Z,2.45
2022-10-12T11:03:51.474Z,1.88
2022-10-12T11:06:36.359Z,2.88
2022-10-12T11:09:05.921Z,2.53
2022-10-12T11:11:35.369Z,2.55
2022-10-12T11:14:13.145Z,2.28
2022-10-12T11:16:46.187Z,2.78
2022-10-12T11:19:21.844Z,3.10
2022-10-12T11:21:53.590Z,2.78
2022-10-12T11:24:41.501Z,2.85
2022-10-12T11:27:14.323Z,2.80
2022-10-12T11:29:41.724Z,2.92
2022-10-12T11:32:27.443Z,4.03
2022-10-12T11:35:00.333Z,3.17
2022-10-12T11:37:47.740Z,2.80
2022-10-12T11:40:47.840Z,3.38
2022-10-12T11:43:14.238Z,2.80
2022-10-12T11:45:43.354Z,3.10
2022-10-12T11:48:24.853Z,3.17
2022-10-12T11:50:58.894Z,3.30
2022-10-12T11:53:34.658Z,3.45
2022-10-12T11:56:08.770Z,2.85
2022-10-12T11:58:59.433Z,2.90
2022-10-12T12:01:43.709Z,3.35
2022-10-12T12:04:39.995Z,2.97
2022-10-12T12:07:04.942Z,3.08
2022-10-12T12:09:32.094Z,2.80
2022-10-12T12:12:18.039Z,3.13
2022-10-12T12:14:50.177Z,3.40
2022-10-12T12:17:20.442Z,2.88
2022-10-12T12:19:51.775Z,2.83
2022-10-12T12:22:23.723Z,2.38
2022-10-12T12:24:56.090Z,2.38
2022-10-12T12:27:40.546Z,2.90
2022-10-12T12:30:21.923Z,2.92
2022-10-12T12:32:54.330Z,2.38
2022-10-12T12:35:27.611Z,2.17
2022-10-12T12:38:05.536Z,2.33
2022-10-12T12:40:33.103Z,2.22
2022-10-12T12:43:19.352Z,2.30
2022-10-12T12:48:45.482Z,2.17
2022-10-12T12:51:48.373Z,2.33
2022-10-12T12:54:24.714Z,1.80
2022-10-12T12:57:11.595Z,1.92
2022-10-12T12:59:57.529Z,2.28
2022-10-12T13:02:49.267Z,1.70
2022-10-12T13:05:38.201Z,2.05
2022-10-12T13:08:05.396Z,2.03
2022-10-12T13:10:39.309Z,1.80
2022-10-12T13:13:29.794Z,1.88
2022-10-12T13:16:06.032Z,1.90
2022-10-12T13:18:47.741Z,2.22
2022-10-12T13:21:17.811Z,2.80
2022-10-12T13:23:49.588Z,2.70
2022-10-12T13:26:19.777Z,2.00
2022-10-12T13:28:49.087Z,2.53
2022-10-12T13:31:22.333Z,2.08
2022-10-12T13:33:54.011Z,2.20
2022-10-12T13:36:24.231Z,2.10
2022-10-12T13:38:56.074Z,1.87
2022-10-12T13:41:25.599Z,1.90
2022-10-12T13:44:04.911Z,2.58
2022-10-12T13:46:44.019Z,2.80
2022-10-12T13:49:31.368Z,2.63
2022-10-12T13:52:03.299Z,2.97
2022-10-12T13:54:44.193Z,2.63
2022-10-12T13:57:21.809Z,2.08
2022-10-12T13:59:52.890Z,2.30
2022-10-12T14:02:24.571Z,2.90
2022-10-12T14:04:53.907Z,2.50
2022-10-12T14:07:35.490Z,2.28
2022-10-12T14:10:05.374Z,2.00
2022-10-12T14:12:32.915Z,2.38
2022-10-12T14:15:00.793Z,2.63
2022-10-12T14:17:27.929Z,2.15
2022-10-12T14:19:56.226Z,2.75
2022-10-12T14:22:26.261Z,2.10
2022-10-12T14:25:06.633Z,2.53
2022-10-12T14:27:34.637Z,1.80
2022-10-12T14:30:28.206Z,1.95
2022-10-12T14:32:59.715Z,2.28
2022-10-12T14:35:30.526Z,2.42
2022-10-12T14:37:59.276Z,2.83
2022-10-12T14:40:39.159Z,2.63
2022-10-12T14:43:15.321Z,2.83
2022-10-12T14:45:42.578Z,2.85
2022-10-12T14:48:20.817Z,2.58
2022-10-12T14:50:48.001Z,2.30
2022-10-12T14:53:15.280Z,2.75
2022-10-12T14:55:43.222Z,2.83
2022-10-12T14:58:17.289Z,2.78
2022-10-12T15:00:44.926Z,2.30
2022-10-12T15:03:12.427Z,3.05
2022-10-12T15:05:39.562Z,3.20
2022-10-12T15:08:09.228Z,3.55
2022-10-12T15:10:37.098Z,3.42
2022-10-12T15:13:04.334Z,3.22
2022-10-12T15:15:34.694Z,3.20
2022-10-12T15:18:01.890Z,3.30
2022-10-12T15:20:29.861Z,2.78
2022-10-12T15:22:57.719Z,3.40
2022-10-12T15:25:26.617Z,3.58
2022-10-12T15:27:53.715Z,3.15
2022-10-12T15:30:21.321Z,3.90
2022-10-12T15:32:48.547Z,4.18
2022-10-12T15:35:19.498Z,3.90
2022-10-12T15:37:47.009Z,3.97
2022-10-12T15:40:14.714Z,4.18
2022-10-12T15:42:42.675Z,4.75
2022-10-12T15:45:15.270Z,3.75
2022-10-12T15:47:42.441Z,4.30
2022-10-12T15:50:09.612Z,4.07
2022-10-12T15:52:36.777Z,4.18
2022-10-12T15:55:04.129Z,3.65
2022-10-12T15:57:31.231Z,4.28
2022-10-12T15:59:58.501Z,3.60
2022-10-12T16:02:25.707Z,3.97
2022-10-12T16:04:52.865Z,3.53
2022-10-12T16:07:20.091Z,4.60
2022-10-12T16:09:47.200Z,4.30
2022-10-12T16:12:14.342Z,3.90
2022-10-12T16:14:41.651Z,3.83
2022-10-12T16:17:08.770Z,4.28
2022-10-12T16:19:35.906Z,4.57
2022-10-12T16:22:04.847Z,4.03
2022-10-12T16:24:31.965Z,4.00
2022-10-12T16:26:59.096Z,4.38
2022-10-12T16:29:26.344Z,4.88
2022-10-12T16:31:53.457Z,4.10
2022-10-12T16:34:20.625Z,4.10
2022-10-12T16:36:47.908Z,4.40
2022-10-12T16:39:15.012Z,5.53
2022-10-12T16:41:42.152Z,4.57
2022-10-12T16:44:09.418Z,4.85
2022-10-12T16:46:37.102Z,5.03
2022-10-12T16:49:04.364Z,4.97
2022-10-12T16:51:31.593Z,4.82
2022-10-12T16:53:58.746Z,5.40
2022-10-12T16:56:25.909Z,5.93
2022-10-12T16:58:53.308Z,5.57
2022-10-12T17:01:20.519Z,5.50
2022-10-12T17:03:47.732Z,6.15
2022-10-12T17:06:14.997Z,6.43
2022-10-12T17:08:42.154Z,6.72
2022-10-12T17:11:09.832Z,6.20
2022-10-12T17:13:37.857Z,5.68
2022-10-12T17:16:25.754Z,5.85
2022-10-12T17:18:58.157Z,5.75
2022-10-12T17:21:26.800Z,6.25
2022-10-12T17:23:56.437Z,5.90
2022-10-12T17:26:23.738Z,5.88
2022-10-12T17:28:50.978Z,5.57
2022-10-12T17:31:18.299Z,5.20
2022-10-12T17:33:45.429Z,6.18
2022-10-12T17:36:14.076Z,6.30
2022-10-12T17:38:41.428Z,6.72
2022-10-12T17:41:08.606Z,7.40
2022-10-12T17:43:35.724Z,6.78
2022-10-12T17:46:05.052Z,6.63
2022-10-12T17:48:32.188Z,6.25
2022-10-12T17:51:03.321Z,6.05
2022-10-12T17:53:30.508Z,7.45
2022-10-12T17:56:00.985Z,6.32
2022-10-12T17:58:28.261Z,6.15
2022-10-12T18:00:55.616Z,6.57
2022-10-12T18:03:25.857Z,6.00
2022-10-12T18:05:53.394Z,5.77
2022-10-12T18:08:20.681Z,6.28
2022-10-12T18:10:50.984Z,6.60
2022-10-12T18:13:18.124Z,5.77
2022-10-12T18:15:45.468Z,5.90
2022-10-12T18:18:15.228Z,5.63
2022-10-12T18:20:42.762Z,6.20
2022-10-12T18:23:10.126Z,6.40
2022-10-12T18:25:40.778Z,5.75
2022-10-12T18:28:08.582Z,5.55
2022-10-12T18:30:36.401Z,5.75
2022-10-12T18:33:03.665Z,6.13
2022-10-12T18:35:31.244Z,6.15
2022-10-12T18:37:58.750Z,6.18
2022-10-12T18:40:26.152Z,5.75
2022-10-12T18:42:53.324Z,5.47
2022-10-12T18:45:20.553Z,6.30
2022-10-12T18:47:47.708Z,6.70
2022-10-12T18:50:14.900Z,5.28
2022-10-12T18:52:42.213Z,5.32
2022-10-12T18:55:09.741Z,6.35
2022-10-12T18:57:40.002Z,6.28
2022-10-12T19:00:08.661Z,7.07
2022-10-12T19:02:36.181Z,7.68
2022-10-12T19:05:03.443Z,7.03
2022-10-12T19:07:30.667Z,7.40
2022-10-12T19:09:58.033Z,8.65
2022-10-12T19:12:25.137Z,8.18
2022-10-12T19:14:52.441Z,7.38
2022-10-12T19:17:19.656Z,9.05
2022-10-12T19:19:46.839Z,9.23
2022-10-12T19:22:14.019Z,9.75
2022-10-12T19:24:41.149Z,8.88
2022-10-12T19:27:08.406Z,9.40
2022-10-12T19:29:35.676Z,9.23
2022-10-12T19:32:03.371Z,8.85
2022-10-12T19:34:30.619Z,9.48
2022-10-12T19:36:57.865Z,9.50
2022-10-12T19:39:25.231Z,11.02
2022-10-12T19:41:52.800Z,10.77
2022-10-12T19:44:20.297Z,11.05
2022-10-12T19:46:48.837Z,10.88
2022-10-12T19:49:17.575Z,11.25
2022-10-12T19:51:45.164Z,12.63
2022-10-12T19:54:13.288Z,11.05
2022-10-12T19:56:40.603Z,10.07
2022-10-12T19:59:08.025Z,11.38
2022-10-12T20:01:36.417Z,10.05
2022-10-12T20:04:09.033Z,10.00
2022-10-12T20:06:37.283Z,12.10
2022-10-12T20:09:05.080Z,11.85
2022-10-12T20:11:32.341Z,12.75
2022-10-12T20:13:59.569Z,12.98
2022-10-12T20:16:30.083Z,12.88
2022-10-12T20:19:01.307Z,13.75
2022-10-12T20:21:28.424Z,13.38
2022-10-12T20:23:55.659Z,13.38
2022-10-12T20:26:24.233Z,12.52
2022-10-12T20:28:51.744Z,11.73
2022-10-12T20:31:22.924Z,9.65
2022-10-12T20:33:51.469Z,9.10
2022-10-12T20:36:23.514Z,8.68
2022-10-12T20:38:51.503Z,8.60
2022-10-12T20:41:21.178Z,8.07
2022-10-12T20:43:48.334Z,8.80
2022-10-12T20:46:16.944Z,10.20
2022-10-12T20:48:44.685Z,10.48
2022-10-12T20:51:16.599Z,10.82
2022-10-12T20:53:43.816Z,11.45
2022-10-12T20:56:11.264Z,10.80
2022-10-12T20:58:38.425Z,10.85
2022-10-12T21:01:10.791Z,9.68
2022-10-12T21:03:38.076Z,8.85
2022-10-12T21:06:06.117Z,9.50
2022-10-12T21:08:33.366Z,10.55
2022-10-12T21:11:00.901Z,10.98
2022-10-12T21:13:30.652Z,10.18
2022-10-12T21:15:58.401Z,10.68
2022-10-12T21:18:25.992Z,10.77
2022-10-12T21:21:00.444Z,11.07
2022-10-12T21:23:27.702Z,10.30
2022-10-12T21:25:55.244Z,9.82
2022-10-12T21:28:23.536Z,10.82
2022-10-12T21:30:51.288Z,9.70
2022-10-12T21:33:19.127Z,9.80
2022-10-12T21:35:46.511Z,9.73
2022-10-12T21:38:13.997Z,10.00
2022-10-12T21:40:41.104Z,9.85
2022-10-12T21:43:08.290Z,11.05
2022-10-12T21:45:35.411Z,10.23
2022-10-12T21:48:02.589Z,11.50
2022-10-12T21:50:29.927Z,10.35
2022-10-12T21:53:00.327Z,11.32
2022-10-12T21:55:27.671Z,11.15
2022-10-12T21:57:54.931Z,11.57
2022-10-12T22:00:22.067Z,10.88
2022-10-12T22:02:49.189Z,11.52
2022-10-12T22:05:16.470Z,11.13
2022-10-12T22:07:44.041Z,12.20
2022-10-12T22:10:11.945Z,12.00
2022-10-12T22:12:39.791Z,11.65
2022-10-12T22:15:08.399Z,12.15
2022-10-12T22:17:35.900Z,11.70
2022-10-12T22:20:03.223Z,12.30
2022-10-12T22:22:30.343Z,12.80
2022-10-12T22:24:57.450Z,11.20
2022-10-12T22:27:24.645Z,13.77
2022-10-12T22:29:51.849Z,13.20
2022-10-12T22:32:19.189Z,13.48
2022-10-12T22:34:46.638Z,13.80
2022-10-12T22:37:13.778Z,14.63
2022-10-12T22:39:40.905Z,14.80
2022-10-12T22:42:08.127Z,14.93
2022-10-12T22:44:35.233Z,14.23
2022-10-12T22:47:02.343Z,13.40
2022-10-12T22:49:29.680Z,13.85
2022-10-12T22:51:56.842Z,12.85
2022-10-12T22:54:23.951Z,13.70
2022-10-12T22:56:53.993Z,13.25
2022-10-12T22:59:21.199Z,12.85
2022-10-12T23:01:48.404Z,12.48
2022-10-12T23:04:15.651Z,12.52
2022-10-12T23:06:42.806Z,12.57
2022-10-12T23:09:09.927Z,13.23
2022-10-12T23:11:37.110Z,13.55
2022-10-12T23:14:04.225Z,13.35
2022-10-12T23:16:32.198Z,14.18
2022-10-12T23:19:00.864Z,14.05
2022-10-12T23:21:28.629Z,15.02
2022-10-12T23:23:55.759Z,15.35
2022-10-12T23:26:24.367Z,14.95
2022-10-12T23:28:51.981Z,15.10
2022-10-12T23:31:20.334Z,15.68
2022-10-12T23:33:47.687Z,15.02
2022-10-12T23:36:15.949Z,14.90
2022-10-12T23:38:43.868Z,15.15
2022-10-12T23:41:11.866Z,14.02
2022-10-12T23:43:39.030Z,15.73
2022-10-12T23:46:06.534Z,14.88
2022-10-12T23:48:35.041Z,15.07
2022-10-12T23:51:02.245Z,16.50
2022-10-12T23:53:29.356Z,15.95
2022-10-12T23:55:56.751Z,15.63
2022-10-12T23:58:23.908Z,15.20
